Time;durP1;ratioP1;P1;durP2;ratioP2;P2;SDS_P1;SDS_P2;PMS_P1;PMS_P2;Temp;Humidity;BMP_temperature;BMP_pressure;BME280_temperature;BME280_humidity;BME280_pressure;Samples;Min_cycle;Max_cycle;Signal;HPM_P1;HPM_P2
2023/12/19 00:00:30;;;;;;;0.40;0.40;;;2.60;88.50;;;;;;4993607;28;20196;-60
2023/12/19 00:02:58;;;;;;;0.77;0.77;;;2.60;88.30;;;;;;4993925;28;20942;-60
2023/12/19 00:05:24;;;;;;;0.30;0.30;;;2.60;87.80;;;;;;4993771;28;20180;-60
2023/12/19 00:07:49;;;;;;;0.80;0.80;;;2.60;87.40;;;;;;4993760;28;20187;-60
2023/12/19 00:10:15;;;;;;;0.60;0.60;;;2.50;88.00;;;;;;4993456;28;20206;-60
2023/12/19 00:12:41;;;;;;;0.50;0.50;;;2.50;88.60;;;;;;4993860;28;20207;-60
2023/12/19 00:15:07;;;;;;;0.60;0.40;;;2.60;88.30;;;;;;4993650;28;20203;-60
2023/12/19 00:17:33;;;;;;;0.40;0.40;;;2.60;87.70;;;;;;4993602;28;20188;-60
2023/12/19 00:19:59;;;;;;;0.40;0.40;;;2.70;87.30;;;;;;4992279;28;20207;-60
2023/12/19 00:22:25;;;;;;;0.50;0.50;;;2.70;87.00;;;;;;4993727;28;20176;-60
2023/12/19 00:24:51;;;;;;;0.40;0.40;;;2.70;87.00;;;;;;4993493;28;20913;-60
2023/12/19 00:27:17;;;;;;;0.50;0.50;;;2.50;87.30;;;;;;4993475;28;20403;-60
2023/12/19 00:29:43;;;;;;;2.20;0.60;;;2.60;87.70;;;;;;4993009;28;20283;-60
2023/12/19 00:32:08;;;;;;;0.40;0.40;;;2.60;87.40;;;;;;4993277;28;20606;-60
2023/12/19 00:34:34;;;;;;;0.70;0.70;;;2.60;87.10;;;;;;4993149;28;20568;-60
2023/12/19 00:37:00;;;;;;;0.50;0.50;;;2.60;87.20;;;;;;4993107;28;20176;-60
2023/12/19 00:39:27;;;;;;;0.40;0.40;;;2.60;86.80;;;;;;4992940;28;20198;-61
2023/12/19 00:41:52;;;;;;;0.40;0.40;;;2.70;86.80;;;;;;4993124;28;20562;-60
2023/12/19 00:44:18;;;;;;;0.33;0.33;;;2.60;86.40;;;;;;4993053;28;20183;-60
2023/12/19 00:46:43;;;;;;;1.23;1.17;;;2.50;86.40;;;;;;4993176;28;20199;-60
2023/12/19 00:49:10;;;;;;;0.50;0.50;;;2.50;86.90;;;;;;4992778;28;20194;-60
2023/12/19 00:51:36;;;;;;;0.40;0.40;;;2.50;87.70;;;;;;4992830;28;20175;-60
2023/12/19 00:54:01;;;;;;;0.40;0.40;;;2.50;88.10;;;;;;4992992;28;20179;-60
2023/12/19 00:56:27;;;;;;;0.40;0.40;;;2.60;87.70;;;;;;4992128;28;21273;-60
2023/12/19 00:58:52;;;;;;;0.50;0.43;;;2.60;87.40;;;;;;4973474;28;20654;-60
2023/12/19 01:01:23;;;;;;;0.40;0.40;;;2.60;87.20;;;;;;4972975;28;20685;-60
2023/12/19 01:03:48;;;;;;;1.60;1.13;;;2.50;87.60;;;;;;4973272;28;20181;-59
2023/12/19 01:06:14;;;;;;;3.03;1.37;;;2.50;87.60;;;;;;4973343;28;20267;-60
2023/12/19 01:08:40;;;;;;;0.40;0.40;;;2.60;87.60;;;;;;4973393;28;20472;-60
2023/12/19 01:11:09;;;;;;;0.67;0.67;;;2.60;87.50;;;;;;4973093;28;20694;-60
2023/12/19 01:13:35;;;;;;;1.25;0.50;;;2.60;86.60;;;;;;4973311;28;20776;-60
2023/12/19 01:16:01;;;;;;;0.30;0.30;;;2.60;86.20;;;;;;4973006;28;20287;-60
2023/12/19 01:18:27;;;;;;;0.40;0.40;;;2.60;86.30;;;;;;4973028;28;20258;-60
2023/12/19 01:20:52;;;;;;;0.40;0.40;;;2.60;86.80;;;;;;4972733;28;20439;-60
2023/12/19 01:23:18;;;;;;;0.50;0.50;;;2.50;87.40;;;;;;4973095;28;20191;-60
2023/12/19 01:25:44;;;;;;;0.47;0.47;;;2.50;87.80;;;;;;4973076;28;20187;-60
2023/12/19 01:28:10;;;;;;;0.40;0.40;;;2.40;88.60;;;;;;4973139;28;20198;-60
2023/12/19 01:30:36;;;;;;;0.50;0.50;;;2.30;89.30;;;;;;4972481;28;20699;-60
2023/12/19 01:33:02;;;;;;;0.40;0.40;;;2.30;88.40;;;;;;4972862;28;20218;-60
2023/12/19 01:35:27;;;;;;;0.40;0.40;;;2.30;88.40;;;;;;4972953;28;20203;-60
2023/12/19 01:37:53;;;;;;;0.30;0.30;;;2.40;89.00;;;;;;4973130;28;20452;-60
2023/12/19 01:40:19;;;;;;;0.60;0.60;;;2.30;89.10;;;;;;4972539;28;20273;-60
2023/12/19 01:42:45;;;;;;;0.82;0.47;;;2.20;89.50;;;;;;4972906;28;20165;-60
2023/12/19 01:45:15;;;;;;;0.40;0.40;;;2.20;89.80;;;;;;4972861;28;20258;-60
2023/12/19 01:47:43;;;;;;;0.68;0.68;;;2.20;89.70;;;;;;4972730;28;20183;-60
2023/12/19 01:50:13;;;;;;;0.30;0.30;;;2.10;89.60;;;;;;4972372;28;20225;-60
2023/12/19 01:52:48;;;;;;;0.30;0.30;;;2.10;89.50;;;;;;4972832;28;20184;-60
2023/12/19 01:55:14;;;;;;;0.30;0.30;;;2.20;89.50;;;;;;4972818;28;20241;-60
2023/12/19 01:57:40;;;;;;;0.30;0.30;;;2.30;88.90;;;;;;4972771;28;20179;-60
2023/12/19 02:00:07;;;;;;;0.40;0.40;;;2.40;88.20;;;;;;4972421;28;20191;-60
2023/12/19 02:02:33;;;;;;;2.65;0.80;;;2.30;87.90;;;;;;4972654;28;20816;-60
2023/12/19 02:04:59;;;;;;;0.37;0.37;;;2.30;88.30;;;;;;4972824;28;20188;-60
2023/12/19 02:07:25;;;;;;;0.50;0.50;;;2.40;88.00;;;;;;4972765;28;20814;-60
2023/12/19 02:09:54;;;;;;;0.30;0.30;;;2.30;87.60;;;;;;4972395;28;20211;-60
2023/12/19 02:12:21;;;;;;;0.40;0.40;;;2.30;87.80;;;;;;4972682;28;20704;-60
2023/12/19 02:14:47;;;;;;;0.60;0.60;;;2.40;87.90;;;;;;4972550;28;20218;-60
2023/12/19 02:17:14;;;;;;;0.85;0.85;;;2.30;88.10;;;;;;4972759;28;20505;-60
2023/12/19 02:19:50;;;;;;;0.40;0.40;;;2.40;88.40;;;;;;4972260;28;20292;-60
2023/12/19 02:22:16;;;;;;;0.80;0.80;;;2.30;88.60;;;;;;4972604;28;20558;-60
2023/12/19 02:24:42;;;;;;;0.30;0.30;;;2.20;89.20;;;;;;4972581;28;20193;-60
2023/12/19 02:27:09;;;;;;;0.40;0.40;;;2.10;89.40;;;;;;4972453;28;20415;-60
2023/12/19 02:29:35;;;;;;;0.40;0.40;;;2.20;89.30;;;;;;4972201;28;20201;-60
2023/12/19 02:32:01;;;;;;;0.50;0.50;;;2.30;88.50;;;;;;4972459;28;20299;-60
2023/12/19 02:34:26;;;;;;;0.40;0.40;;;2.30;88.10;;;;;;4972479;28;20580;-60
2023/12/19 02:36:52;;;;;;;0.50;0.50;;;2.40;87.90;;;;;;4972431;28;20230;-60
2023/12/19 02:39:18;;;;;;;0.50;0.50;;;2.40;88.50;;;;;;4972154;28;20192;-60
2023/12/19 02:41:44;;;;;;;0.47;0.47;;;2.40;88.50;;;;;;4972156;28;20184;-60
2023/12/19 02:44:10;;;;;;;0.50;0.50;;;2.40;89.10;;;;;;4975852;28;20248;-62
2023/12/19 02:46:36;;;;;;;0.40;0.40;;;2.30;88.90;;;;;;4975824;28;20677;-62
2023/12/19 02:49:02;;;;;;;0.30;0.30;;;2.30;88.30;;;;;;4975754;28;20181;-60
2023/12/19 02:51:29;;;;;;;0.40;0.40;;;2.30;88.50;;;;;;4975430;28;20448;-60
2023/12/19 02:53:55;;;;;;;0.40;0.40;;;2.20;89.40;;;;;;4975695;28;20912;-60
2023/12/19 02:56:21;;;;;;;0.40;0.40;;;2.20;89.60;;;;;;4975559;28;20215;-62
2023/12/19 02:58:47;;;;;;;0.50;0.50;;;2.30;89.50;;;;;;4975665;28;20521;-62
2023/12/19 03:01:12;;;;;;;1.57;0.50;;;2.30;89.20;;;;;;4975291;28;20189;-60
2023/12/19 03:03:42;;;;;;;0.40;0.40;;;2.20;89.80;;;;;;4975609;28;20183;-60
2023/12/19 03:06:08;;;;;;;3.63;1.02;;;2.20;90.30;;;;;;4975446;28;20185;-60
2023/12/19 03:08:37;;;;;;;0.50;0.50;;;2.20;90.20;;;;;;4975525;28;20186;-60
2023/12/19 03:11:02;;;;;;;0.50;0.50;;;2.20;89.60;;;;;;4974953;28;20286;-60
2023/12/19 03:13:28;;;;;;;1.93;0.60;;;2.20;89.00;;;;;;4975373;28;20271;-60
2023/12/19 03:15:55;;;;;;;0.40;0.40;;;2.20;89.00;;;;;;4975289;28;20514;-60
2023/12/19 03:18:24;;;;;;;0.40;0.40;;;2.20;88.70;;;;;;4975254;28;20498;-60
2023/12/19 03:20:53;;;;;;;0.38;0.38;;;2.20;88.60;;;;;;4974838;28;20204;-60
2023/12/19 03:23:22;;;;;;;0.50;0.50;;;2.30;88.60;;;;;;4975182;28;20180;-60
2023/12/19 03:25:48;;;;;;;0.50;0.50;;;2.30;88.70;;;;;;4975164;28;20188;-60
2023/12/19 03:28:14;;;;;;;0.50;0.50;;;2.10;89.10;;;;;;4975247;28;20188;-60
2023/12/19 03:30:40;;;;;;;1.48;1.38;;;2.10;90.00;;;;;;4974626;28;20203;-60
2023/12/19 03:33:05;;;;;;;0.40;0.40;;;2.10;90.10;;;;;;4974597;28;20179;-60
2023/12/19 03:35:31;;;;;;;1.70;0.60;;;2.10;90.50;;;;;;4973896;28;20202;-60
2023/12/19 03:37:57;;;;;;;1.00;0.53;;;2.20;90.50;;;;;;4975242;28;20182;-62
2023/12/19 03:40:23;;;;;;;1.30;0.93;;;2.20;90.40;;;;;;4975183;28;20201;-60
2023/12/19 03:42:49;;;;;;;0.30;0.30;;;2.30;90.00;;;;;;4976543;28;20205;-60
2023/12/19 03:45:15;;;;;;;0.30;0.30;;;2.40;89.60;;;;;;4976557;28;20273;-60
2023/12/19 03:47:40;;;;;;;0.40;0.40;;;2.40;89.40;;;;;;4976423;28;20457;-60
2023/12/19 03:50:07;;;;;;;0.93;0.50;;;2.40;89.40;;;;;;4975652;28;20459;-61
2023/12/19 03:52:33;;;;;;;0.50;0.50;;;2.30;89.70;;;;;;4976332;28;20422;-60
2023/12/19 03:54:59;;;;;;;0.30;0.30;;;2.30;90.20;;;;;;4958766;28;20197;-60
2023/12/19 03:57:28;;;;;;;0.30;0.30;;;2.40;90.20;;;;;;4976608;28;20415;-60
2023/12/19 03:59:54;;;;;;;0.50;0.50;;;2.30;89.90;;;;;;4975813;28;20276;-61
2023/12/19 04:02:19;;;;;;;0.30;0.30;;;2.30;89.60;;;;;;4976801;28;20262;-60
2023/12/19 04:04:45;;;;;;;0.40;0.40;;;2.40;89.30;;;;;;4976732;28;20259;-60
2023/12/19 04:07:11;;;;;;;0.40;0.40;;;2.40;89.40;;;;;;4976571;28;20279;-60
2023/12/19 04:09:37;;;;;;;0.40;0.40;;;2.40;89.80;;;;;;4975858;28;20700;-61
2023/12/19 04:12:03;;;;;;;0.30;0.30;;;2.40;89.80;;;;;;4975633;28;20233;-60
2023/12/19 04:14:33;;;;;;;0.40;0.40;;;2.40;90.00;;;;;;4975414;28;20184;-60
2023/12/19 04:16:59;;;;;;;0.40;0.40;;;2.40;89.80;;;;;;4975998;28;20657;-60
2023/12/19 04:19:25;;;;;;;0.40;0.40;;;2.50;89.30;;;;;;4975661;28;20203;-61
2023/12/19 04:21:51;;;;;;;2.95;0.88;;;2.40;88.50;;;;;;4975328;28;20179;-60
2023/12/19 04:24:19;;;;;;;0.40;0.40;;;2.40;87.90;;;;;;4975450;28;20176;-60
2023/12/19 04:26:46;;;;;;;0.40;0.40;;;2.50;87.20;;;;;;4975488;28;20207;-60
2023/12/19 04:29:12;;;;;;;0.40;0.40;;;2.40;87.30;;;;;;4974716;28;20565;-61
2023/12/19 04:31:39;;;;;;;0.60;0.60;;;2.40;87.90;;;;;;4975418;28;20196;-60
2023/12/19 04:34:05;;;;;;;0.50;0.50;;;2.40;88.20;;;;;;4974814;28;20184;-60
2023/12/19 04:36:31;;;;;;;0.50;0.50;;;2.30;88.50;;;;;;4974860;28;20580;-60
2023/12/19 04:38:57;;;;;;;0.55;0.55;;;2.40;88.50;;;;;;4975682;28;20182;-60
2023/12/19 04:41:23;;;;;;;0.40;0.40;;;2.40;88.50;;;;;;4974800;28;20204;-61
2023/12/19 04:43:48;;;;;;;0.37;0.37;;;2.40;88.60;;;;;;4975841;28;20917;-60
2023/12/19 04:46:14;;;;;;;1.47;1.23;;;2.40;88.30;;;;;;4974624;28;20183;-61
2023/12/19 04:48:43;;;;;;;0.40;0.40;;;2.30;88.30;;;;;;4974686;28;20180;-60
2023/12/19 04:51:18;;;;;;;0.50;0.50;;;2.10;88.40;;;;;;4974692;28;20200;-60
2023/12/19 04:53:45;;;;;;;0.70;0.70;;;2.10;88.60;;;;;;4975127;28;20173;-60
2023/12/19 04:56:11;;;;;;;0.40;0.40;;;2.10;88.30;;;;;;4974057;28;20203;-61
2023/12/19 04:58:37;;;;;;;0.40;0.40;;;2.10;88.00;;;;;;4974711;28;20179;-61
2023/12/19 05:01:03;;;;;;;0.30;0.30;;;2.30;87.40;;;;;;4973823;28;20432;-61
2023/12/19 05:03:29;;;;;;;0.60;0.40;;;2.30;87.00;;;;;;4974631;28;20188;-60
2023/12/19 05:05:55;;;;;;;0.30;0.30;;;2.20;87.00;;;;;;4973937;28;20714;-60
2023/12/19 05:08:21;;;;;;;0.30;0.30;;;2.30;87.70;;;;;;4958674;28;20511;-60
2023/12/19 05:10:48;;;;;;;7.82;1.75;;;2.40;87.20;;;;;;4965519;28;20686;-60
2023/12/19 05:13:16;;;;;;;0.30;0.30;;;2.30;86.90;;;;;;4974322;28;20608;-60
2023/12/19 05:15:42;;;;;;;4.55;0.50;;;2.30;87.20;;;;;;4974572;28;20208;-60
2023/12/19 05:18:08;;;;;;;0.40;0.40;;;2.40;87.00;;;;;;4972996;28;20187;-60
2023/12/19 05:20:33;;;;;;;0.40;0.40;;;2.30;86.50;;;;;;4973398;28;20690;-60
2023/12/19 05:23:00;;;;;;;0.50;0.50;;;2.30;86.20;;;;;;4974553;28;20180;-60
2023/12/19 05:25:26;;;;;;;1.35;1.25;;;2.20;85.80;;;;;;4975542;28;20243;-60
2023/12/19 05:27:51;;;;;;;0.40;0.40;;;2.20;86.30;;;;;;4974888;28;20620;-60
2023/12/19 05:30:17;;;;;;;0.50;0.50;;;2.20;86.10;;;;;;4973899;28;20205;-60
2023/12/19 05:32:43;;;;;;;0.93;0.93;;;2.20;86.00;;;;;;4974337;28;20176;-59
2023/12/19 05:35:09;;;;;;;0.40;0.40;;;2.20;86.10;;;;;;4973744;28;20304;-62
2023/12/19 05:37:35;;;;;;;1.33;1.23;;;2.10;86.80;;;;;;4973396;28;20688;-60
2023/12/19 05:40:01;;;;;;;0.50;0.50;;;2.20;86.50;;;;;;4972615;28;20204;-60
2023/12/19 05:42:27;;;;;;;0.70;0.70;;;2.20;86.50;;;;;;4972964;28;20183;-60
2023/12/19 05:44:53;;;;;;;0.40;0.40;;;2.20;86.00;;;;;;4973002;28;20214;-60
2023/12/19 05:47:18;;;;;;;0.80;0.80;;;2.20;84.90;;;;;;4972826;28;20181;-60
2023/12/19 05:49:44;;;;;;;0.40;0.40;;;2.30;83.80;;;;;;4972419;28;20211;-60
2023/12/19 05:52:09;;;;;;;0.43;0.43;;;2.30;84.40;;;;;;4987227;28;20192;-59
2023/12/19 05:54:35;;;;;;;0.67;0.67;;;2.30;84.90;;;;;;4987633;28;20296;-60
2023/12/19 05:57:01;;;;;;;0.30;0.30;;;2.30;85.00;;;;;;4991998;28;20183;-59
2023/12/19 05:59:26;;;;;;;0.30;0.30;;;2.20;85.00;;;;;;4991912;28;20195;-63
2023/12/19 06:01:52;;;;;;;0.40;0.40;;;2.20;85.00;;;;;;4991720;28;20171;-59
2023/12/19 06:04:18;;;;;;;0.30;0.30;;;2.20;83.70;;;;;;4991908;28;20183;-59
2023/12/19 06:06:44;;;;;;;0.50;0.47;;;2.20;83.70;;;;;;4991867;28;20183;-60
2023/12/19 06:09:13;;;;;;;0.30;0.30;;;2.20;83.00;;;;;;4992264;28;20286;-60
2023/12/19 06:11:39;;;;;;;0.68;0.68;;;2.20;82.70;;;;;;4992038;28;20939;-60
2023/12/19 06:14:06;;;;;;;0.90;0.80;;;2.10;83.90;;;;;;4992386;28;20269;-61
2023/12/19 06:16:32;;;;;;;0.60;0.60;;;2.10;85.30;;;;;;4991378;28;20485;-61
2023/12/19 06:18:58;;;;;;;0.40;0.40;;;2.10;85.60;;;;;;4994882;28;20582;-60
2023/12/19 06:21:24;;;;;;;0.40;0.40;;;2.10;85.10;;;;;;4995456;28;20202;-61
2023/12/19 06:23:52;;;;;;;0.75;0.50;;;2.10;85.20;;;;;;4995652;28;20951;-60
2023/12/19 06:26:18;;;;;;;0.40;0.40;;;2.10;84.80;;;;;;4995244;28;20237;-60
2023/12/19 06:28:44;;;;;;;0.30;0.30;;;2.10;84.60;;;;;;4995348;28;20696;-60
2023/12/19 06:31:09;;;;;;;0.40;0.40;;;2.10;84.10;;;;;;4996439;28;20195;-59
2023/12/19 06:33:36;;;;;;;0.50;0.50;;;2.10;83.90;;;;;;4995632;28;20258;-59
2023/12/19 06:36:03;;;;;;;0.65;0.47;;;2.00;83.30;;;;;;4994953;28;20631;-60
2023/12/19 06:38:29;;;;;;;0.40;0.40;;;2.10;83.60;;;;;;4995360;28;20309;-60
2023/12/19 06:40:54;;;;;;;0.40;0.40;;;2.10;83.80;;;;;;4994504;28;20290;-60
2023/12/19 06:43:20;;;;;;;0.40;0.40;;;2.10;83.50;;;;;;4995007;28;20265;-60
2023/12/19 06:45:46;;;;;;;0.40;0.40;;;2.10;83.90;;;;;;4995075;28;20666;-60
2023/12/19 06:48:11;;;;;;;0.40;0.40;;;2.20;83.80;;;;;;4995079;28;20203;-60
2023/12/19 06:50:39;;;;;;;0.40;0.40;;;2.10;83.60;;;;;;4994803;28;20196;-59
2023/12/19 06:53:04;;;;;;;0.50;0.50;;;2.10;83.20;;;;;;4995084;28;20187;-60
2023/12/19 06:55:30;;;;;;;0.40;0.40;;;2.10;83.20;;;;;;4995168;28;20726;-60
2023/12/19 06:57:57;;;;;;;0.33;0.33;;;2.10;83.40;;;;;;4995076;28;20178;-60
2023/12/19 07:00:22;;;;;;;1.23;1.13;;;2.10;82.50;;;;;;4994229;28;20622;-59
2023/12/19 07:02:48;;;;;;;0.37;0.37;;;2.20;82.30;;;;;;4994746;28;20173;-60
2023/12/19 07:05:14;;;;;;;0.70;0.70;;;2.20;82.20;;;;;;4994899;28;20178;-60
2023/12/19 07:07:39;;;;;;;0.30;0.30;;;2.20;81.60;;;;;;4994905;28;20178;-60
2023/12/19 07:10:05;;;;;;;0.40;0.40;;;2.20;81.60;;;;;;4994325;28;20202;-60
2023/12/19 07:12:31;;;;;;;0.40;0.40;;;2.10;82.90;;;;;;4994854;28;20621;-60
2023/12/19 07:14:56;;;;;;;0.30;0.30;;;2.10;83.80;;;;;;4994558;28;20249;-60
2023/12/19 07:17:22;;;;;;;0.30;0.30;;;2.10;83.30;;;;;;4994581;28;20297;-60
2023/12/19 07:19:48;;;;;;;0.40;0.40;;;2.10;83.50;;;;;;4994175;28;20261;-61
2023/12/19 07:22:13;;;;;;;0.30;0.30;;;2.10;83.70;;;;;;4994450;28;20712;-60
2023/12/19 07:24:40;;;;;;;0.40;0.40;;;2.00;84.60;;;;;;4994316;28;20179;-60
2023/12/19 07:27:06;;;;;;;0.95;0.57;;;2.00;85.50;;;;;;4994388;28;20179;-60
2023/12/19 07:29:31;;;;;;;0.50;0.50;;;1.90;86.50;;;;;;4994128;28;20674;-60
2023/12/19 07:31:58;;;;;;;0.40;0.40;;;2.00;86.50;;;;;;4994213;28;20262;-59
2023/12/19 07:34:24;;;;;;;0.38;0.38;;;2.10;85.70;;;;;;4994441;28;20562;-60
2023/12/19 07:36:51;;;;;;;0.50;0.50;;;2.10;84.30;;;;;;4994204;28;20216;-59
2023/12/19 07:39:16;;;;;;;0.40;0.40;;;2.20;82.90;;;;;;4993785;28;20551;-60
2023/12/19 07:41:42;;;;;;;0.70;0.67;;;2.20;84.20;;;;;;4994089;28;20175;-60
2023/12/19 07:44:09;;;;;;;0.40;0.40;;;2.30;84.10;;;;;;4994095;28;20410;-60
2023/12/19 07:46:41;;;;;;;0.40;0.40;;;2.30;82.60;;;;;;4994020;28;20241;-60
2023/12/19 07:49:08;;;;;;;0.30;0.30;;;2.30;83.90;;;;;;4993929;28;20200;-60
2023/12/19 07:51:34;;;;;;;0.40;0.40;;;2.30;82.50;;;;;;4993824;28;20203;-60
2023/12/19 07:53:59;;;;;;;4.20;2.10;;;2.40;82.80;;;;;;4993950;28;20706;-60
2023/12/19 07:56:25;;;;;;;0.40;0.40;;;2.50;83.10;;;;;;4993902;28;20740;-60
2023/12/19 07:58:51;;;;;;;1.67;0.70;;;2.50;83.50;;;;;;4993877;28;20532;-60
2023/12/19 08:01:17;;;;;;;1.75;0.65;;;2.50;83.00;;;;;;4993459;28;20642;-60
2023/12/19 08:03:44;;;;;;;0.40;0.40;;;2.50;82.40;;;;;;4993701;28;20222;-60
2023/12/19 08:06:10;;;;;;;0.40;0.40;;;2.40;82.50;;;;;;4993738;28;20251;-60
2023/12/19 08:08:35;;;;;;;0.57;0.57;;;2.40;83.00;;;;;;4993527;28;20243;-59
2023/12/19 08:11:01;;;;;;;0.40;0.40;;;2.40;83.00;;;;;;4993282;28;20198;-60
2023/12/19 08:13:27;;;;;;;0.80;0.80;;;2.40;83.10;;;;;;4993639;28;20176;-60
2023/12/19 08:15:53;;;;;;;1.23;0.80;;;2.80;84.40;;;;;;4993548;28;21003;-60
2023/12/19 08:18:19;;;;;;;0.50;0.50;;;3.80;83.40;;;;;;4993435;28;20568;-60
2023/12/19 08:20:45;;;;;;;1.00;0.90;;;4.90;80.80;;;;;;4992978;28;20271;-60
2023/12/19 08:23:11;;;;;;;1.60;0.55;;;5.90;78.70;;;;;;4993199;28;20226;-60
2023/12/19 08:25:38;;;;;;;0.80;0.80;;;6.80;76.00;;;;;;4993514;28;20204;-60
2023/12/19 08:28:04;;;;;;;0.65;0.65;;;7.60;71.80;;;;;;4993390;28;20498;-60
2023/12/19 08:30:30;;;;;;;1.00;0.73;;;8.20;68.90;;;;;;4992911;28;20777;-59
2023/12/19 08:32:57;;;;;;;3.80;1.85;;;8.70;65.20;;;;;;4993103;28;20211;-60
2023/12/19 08:35:23;;;;;;;1.60;1.50;;;9.20;64.80;;;;;;4993128;28;20208;-60
2023/12/19 08:37:49;;;;;;;4.60;3.03;;;9.70;64.20;;;;;;4993098;28;20934;-60
2023/12/19 08:40:15;;;;;;;1.97;1.80;;;10.00;59.80;;;;;;4992144;28;20522;-60
2023/12/19 08:42:41;;;;;;;6.30;3.17;;;9.90;59.10;;;;;;4993251;28;20546;-60
2023/12/19 08:45:17;;;;;;;12.47;9.43;;;10.00;58.30;;;;;;4993212;28;20522;-60
2023/12/19 08:47:44;;;;;;;14.50;7.53;;;10.40;57.90;;;;;;4993056;28;20407;-61
2023/12/19 08:50:12;;;;;;;10.80;7.90;;;10.90;57.10;;;;;;4992582;28;20969;-61
2023/12/19 08:52:42;;;;;;;2.47;2.20;;;11.30;56.80;;;;;;4992806;28;20938;-60
2023/12/19 08:55:11;;;;;;;8.33;4.33;;;11.50;55.40;;;;;;4992779;28;20541;-60
2023/12/19 08:57:45;;;;;;;4.53;3.50;;;11.80;55.80;;;;;;4992973;28;20417;-60
2023/12/19 09:00:19;;;;;;;2.90;1.60;;;12.30;54.60;;;;;;4992449;28;20807;-60
2023/12/19 09:02:46;;;;;;;2.20;1.13;;;13.00;53.20;;;;;;4992793;28;20875;-60
2023/12/19 09:05:17;;;;;;;3.80;2.63;;;13.60;49.60;;;;;;4992724;28;20945;-60
2023/12/19 09:07:46;;;;;;;7.30;3.43;;;14.10;48.10;;;;;;4992693;28;20496;-60
2023/12/19 09:10:13;;;;;;;5.57;3.73;;;14.20;48.50;;;;;;4992487;28;20806;-60
2023/12/19 09:12:39;;;;;;;2.80;2.10;;;14.30;48.20;;;;;;4992614;28;20506;-60
2023/12/19 09:15:06;;;;;;;4.40;2.60;;;14.40;48.00;;;;;;4992516;28;20578;-60
2023/12/19 09:17:32;;;;;;;1.23;1.13;;;14.90;46.10;;;;;;4992824;28;20411;-60
2023/12/19 09:19:59;;;;;;;3.77;2.60;;;15.70;42.80;;;;;;4992234;28;20514;-60
2023/12/19 09:22:25;;;;;;;1.90;1.80;;;16.20;44.00;;;;;;4992607;28;20410;-61
2023/12/19 09:24:51;;;;;;;3.70;2.83;;;16.40;45.10;;;;;;4992508;28;20404;-60
2023/12/19 09:27:17;;;;;;;3.00;1.60;;;16.90;44.80;;;;;;4992484;28;20457;-61
2023/12/19 09:29:43;;;;;;;1.87;1.70;;;17.50;43.80;;;;;;4991948;28;20439;-61
2023/12/19 09:32:09;;;;;;;1.87;1.50;;;18.30;43.10;;;;;;4992455;28;20164;-61
2023/12/19 09:34:36;;;;;;;2.87;2.40;;;19.00;41.20;;;;;;4992395;28;20727;-61
2023/12/19 09:37:04;;;;;;;1.40;1.30;;;19.30;40.40;;;;;;4992260;28;20191;-61
2023/12/19 09:39:30;;;;;;;1.40;1.30;;;19.60;39.90;;;;;;4991991;28;20944;-61
2023/12/19 09:41:56;;;;;;;4.10;1.90;;;19.80;38.00;;;;;;4992189;28;20481;-61
2023/12/19 09:44:23;;;;;;;1.37;0.90;;;20.30;38.00;;;;;;4992167;28;20179;-61
2023/12/19 09:46:50;;;;;;;1.00;0.90;;;20.90;34.70;;;;;;4992534;28;20415;-61
2023/12/19 09:49:21;;;;;;;1.53;0.90;;;21.60;34.60;;;;;;4992030;28;20415;-61
2023/12/19 09:51:51;;;;;;;2.70;2.37;;;22.50;33.30;;;;;;4993735;28;20419;-61
2023/12/19 09:54:19;;;;;;;1.87;1.30;;;23.10;33.20;;;;;;4996308;28;20419;-61
2023/12/19 09:56:46;;;;;;;1.67;1.53;;;23.30;30.70;;;;;;4996085;28;20462;-61
2023/12/19 09:59:14;;;;;;;0.77;0.73;;;23.60;31.30;;;;;;4996261;28;20470;-61
2023/12/19 10:01:40;;;;;;;1.60;1.50;;;23.60;31.40;;;;;;4996119;28;20489;-61
2023/12/19 10:04:13;;;;;;;3.00;1.50;;;22.70;31.10;;;;;;4996051;28;20887;-61
2023/12/19 10:06:52;;;;;;;0.70;0.60;;;22.10;31.00;;;;;;4996112;28;20407;-61
2023/12/19 10:09:18;;;;;;;0.60;0.60;;;20.90;31.30;;;;;;4995837;28;20489;-61
2023/12/19 10:11:43;;;;;;;0.60;0.50;;;20.20;31.90;;;;;;4995850;28;20445;-61
2023/12/19 10:14:14;;;;;;;0.50;0.50;;;20.20;33.50;;;;;;4996037;28;20252;-61
2023/12/19 10:16:40;;;;;;;0.97;0.90;;;20.30;30.70;;;;;;4995973;28;20215;-61
2023/12/19 10:19:11;;;;;;;0.80;0.43;;;20.90;30.30;;;;;;4995756;28;20947;-61
2023/12/19 10:21:36;;;;;;;0.53;0.50;;;20.90;29.90;;;;;;4995579;28;20404;-60
2023/12/19 10:24:09;;;;;;;1.10;0.80;;;20.90;28.40;;;;;;4995656;28;20419;-61
2023/12/19 10:26:35;;;;;;;0.70;0.70;;;21.00;29.40;;;;;;4995938;28;20223;-61
2023/12/19 10:29:00;;;;;;;0.63;0.63;;;21.10;28.10;;;;;;4995810;28;20415;-61
2023/12/19 10:31:26;;;;;;;0.63;0.60;;;20.70;26.40;;;;;;4995346;28;20200;-61
2023/12/19 10:33:56;;;;;;;0.40;0.40;;;20.70;26.90;;;;;;4995584;28;20176;-60
2023/12/19 10:36:28;;;;;;;0.50;0.50;;;20.90;29.80;;;;;;4995345;28;20234;-61
2023/12/19 10:38:56;;;;;;;1.03;0.50;;;21.10;28.50;;;;;;4995730;28;20447;-61
2023/12/19 10:41:27;;;;;;;0.60;0.60;;;21.20;28.30;;;;;;4995021;28;20458;-61
2023/12/19 10:43:58;;;;;;;0.57;0.50;;;21.10;28.60;;;;;;4995469;28;20872;-61
2023/12/19 10:46:33;;;;;;;1.60;0.80;;;20.80;30.00;;;;;;4995453;28;20426;-60
2023/12/19 10:49:03;;;;;;;2.20;0.70;;;20.00;31.40;;;;;;4995185;28;20774;-61
2023/12/19 10:51:42;;;;;;;0.70;0.70;;;19.00;31.10;;;;;;4994922;28;20438;-61
2023/12/19 10:54:12;;;;;;;0.97;0.63;;;18.00;31.20;;;;;;4995276;28;20418;-60
2023/12/19 10:57:14;;;;;;;0.70;0.70;;;17.50;29.90;;;;;;4995507;28;20454;-60
2023/12/19 10:59:44;;;;;;;1.20;0.93;;;17.10;32.30;;;;;;4994808;28;20777;-61
2023/12/19 11:02:37;;;;;;;0.40;0.40;;;16.70;32.10;;;;;;4995069;28;20410;-61
2023/12/19 11:05:23;;;;;;;0.90;0.80;;;16.30;34.20;;;;;;4994751;28;20419;-60
2023/12/19 11:07:51;;;;;;;0.80;0.80;;;15.50;32.70;;;;;;4994956;28;20411;-60
2023/12/19 11:10:21;;;;;;;0.50;0.50;;;15.00;35.10;;;;;;4994791;28;20844;-60
2023/12/19 11:12:48;;;;;;;0.97;0.90;;;14.20;36.10;;;;;;4995196;28;20939;-60
2023/12/19 11:15:15;;;;;;;0.90;0.90;;;13.40;39.50;;;;;;4994863;28;20459;-60
2023/12/19 11:18:19;;;;;;;0.77;0.77;;;13.00;38.60;;;;;;4994900;28;20484;-60
2023/12/19 11:20:58;;;;;;;0.83;0.60;;;13.00;39.40;;;;;;4994116;28;20505;-60
2023/12/19 11:23:30;;;;;;;0.77;0.60;;;12.80;39.20;;;;;;4995106;28;20411;-60
2023/12/19 11:26:05;;;;;;;0.50;0.50;;;12.40;41.50;;;;;;4994626;28;20419;-60
2023/12/19 11:28:40;;;;;;;0.90;0.90;;;12.20;41.60;;;;;;4995015;28;20418;-60
2023/12/19 11:31:29;;;;;;;0.97;0.90;;;12.10;41.40;;;;;;4994440;28;20439;-59
2023/12/19 11:33:55;;;;;;;0.50;0.50;;;12.00;40.10;;;;;;4994405;28;20991;-60
2023/12/19 11:36:21;;;;;;;3.40;1.30;;;11.90;40.20;;;;;;4994574;28;20458;-60
2023/12/19 11:38:49;;;;;;;0.93;0.70;;;11.90;41.00;;;;;;4994374;28;20999;-60
2023/12/19 11:41:37;;;;;;;2.00;1.03;;;11.70;41.90;;;;;;4993947;28;20219;-60
2023/12/19 11:44:02;;;;;;;1.50;1.40;;;11.40;41.50;;;;;;4994485;28;20424;-60
2023/12/19 11:46:28;;;;;;;1.43;0.83;;;11.30;42.70;;;;;;4994396;28;20419;-60
2023/12/19 11:48:55;;;;;;;0.97;0.87;;;11.10;44.10;;;;;;4994193;28;20176;-60
2023/12/19 11:51:44;;;;;;;0.90;0.90;;;11.00;43.70;;;;;;4993795;28;20657;-60
2023/12/19 11:54:12;;;;;;;0.67;0.67;;;10.90;43.90;;;;;;4994290;28;20419;-60
2023/12/19 11:56:41;;;;;;;0.70;0.70;;;10.80;43.20;;;;;;4994065;28;20455;-60
2023/12/19 11:59:08;;;;;;;1.10;0.70;;;10.70;45.50;;;;;;4993961;28;20411;-60
2023/12/19 12:01:41;;;;;;;1.88;0.93;;;10.40;45.40;;;;;;4993733;28;20415;-60
2023/12/19 12:04:10;;;;;;;1.60;1.50;;;10.20;44.60;;;;;;4994144;28;20218;-60
2023/12/19 12:06:37;;;;;;;1.43;0.70;;;10.20;44.40;;;;;;4994085;28;20422;-60
2023/12/19 12:09:05;;;;;;;0.50;0.50;;;10.30;45.40;;;;;;4993969;28;20423;-60
2023/12/19 12:11:45;;;;;;;0.50;0.50;;;10.30;45.90;;;;;;4993564;28;20502;-60
2023/12/19 12:14:10;;;;;;;2.97;0.60;;;10.40;48.00;;;;;;4993409;28;20207;-60
2023/12/19 12:16:37;;;;;;;0.70;0.70;;;10.50;48.90;;;;;;4992960;28;20944;-60
2023/12/19 12:19:18;;;;;;;1.17;0.60;;;10.50;45.50;;;;;;4993755;28;20195;-60
2023/12/19 12:21:45;;;;;;;0.70;0.70;;;10.50;47.50;;;;;;4993444;28;20530;-60
2023/12/19 12:24:17;;;;;;;3.93;1.40;;;10.50;44.20;;;;;;4993605;28;20423;-60
2023/12/19 12:26:43;;;;;;;1.90;1.13;;;10.70;43.30;;;;;;4993409;28;20446;-59
2023/12/19 12:29:08;;;;;;;0.70;0.50;;;10.70;42.80;;;;;;4993401;28;20449;-60
2023/12/19 12:31:35;;;;;;;0.60;0.60;;;10.70;42.50;;;;;;4993198;28;20200;-60
2023/12/19 12:34:01;;;;;;;1.15;0.65;;;10.70;42.70;;;;;;4993370;28;20168;-60
2023/12/19 12:36:26;;;;;;;1.00;0.93;;;10.70;42.90;;;;;;4993379;28;20218;-60
2023/12/19 12:38:56;;;;;;;1.03;0.87;;;10.50;42.60;;;;;;4993297;28;20179;-60
2023/12/19 12:41:22;;;;;;;0.80;0.80;;;10.30;43.20;;;;;;4992743;28;20454;-60
2023/12/19 12:43:51;;;;;;;0.90;0.70;;;10.30;43.30;;;;;;4993389;28;20185;-60
2023/12/19 12:46:19;;;;;;;1.00;0.90;;;10.40;44.90;;;;;;4993103;28;20176;-60
2023/12/19 12:48:54;;;;;;;0.70;0.70;;;10.40;44.90;;;;;;4993019;28;20426;-60
2023/12/19 12:51:23;;;;;;;1.80;1.70;;;10.20;45.50;;;;;;4992810;28;20203;-60
2023/12/19 12:53:59;;;;;;;0.70;0.70;;;10.30;44.10;;;;;;4993400;28;20176;-60